Gabriel Torres

Recruteur en chef - Athletic Bilbao
24 Juil 2027
Samedi
Processus

Personnalité

Adaptabilité (18) Ambition (18) Controverse (9) Loyauté (20) Pression (13) Professionnalisme (13) Sportivité (19) Tempérament (15)

Profil

Style d'entraînement Démocratique
Diplôme Continental B
Détermination 12
Gestion des joueurs 14
Motivation 14
Discipline 6
Satisfaction professionnelle
80%
Fatigue
0%
Rôle Recruteur en chef
Salaire 31.8K p/s
Contrat 14.03.2030

Performance

Comportement Bon
Efficacité de l'entraînement
38%
Développement des joueurs
45%
Prévention des blessures
75%
Mise en place tactique
50%

Événements récents

A participé à une réunion de recrutement maintenant
A participé à une réunion de recrutement maintenant
A participé à une réunion de recrutement maintenant
A participé à une réunion de recrutement 7j
A participé à une réunion de recrutement 7j
A participé à une réunion de recrutement 7j
A recommandé une cible de transfert 7j
A participé à une réunion de recrutement 7j

Suivi en cours

187
Joueur Club Statut Capacité Confiance Observé Dernière observation Dernier vote
Caleb Yirenkyi Coventry City Actif 142 / 144 40% 7 05.07.2027 -
Jorrel Hato Chelsea Actif 151 / 159 40% 3 05.07.2027 -
Davide Bartesaghi AC Milan Actif 133 / 134 40% 1 29.06.2027 -
João Simões Sporting CP Actif 135 / 142 40% 4 14.06.2027 -
Izan Merino Málaga Perdu 126 / 134 40% 2 14.06.2027 -
Samuel Lucero Defensa y Justicia Actif 113 / 117 40% 3 06.06.2027 -
Jofre Torrents Ajax Actif 124 / 122 40% 2 06.06.2027 -
Mamadou Diakhon Club Brugge Perdu 115 / 125 40% 1 03.06.2027 -
Bazoumana Touré Newcastle United Actif 135 / 142 40% 1 03.06.2027 -
Assane Diao Como Actif 151 / 152 40% 6 02.06.2027 -
Jeremías Merlo AC Milan Actif 126 / 133 40% 1 02.06.2027 -
Jakub Kiwior Porto Perdu 156 / 156 69% 1 01.06.2027 -
Konstantin Tyukavin Arsenal Rapport prêt 132 / 133 66% 1 01.06.2027 -
Jonathan Dubasin Osasuna Actif 136 / 136 40% 2 30.05.2027 -
Dávid Strelec Middlesbrough Actif 132 / 133 40% 1 30.05.2027 -
Pau Víctor Estrela da Amadora Actif 135 / 141 40% 9 29.05.2027 -
Yusi Alavés Actif 121 / 132 40% 11 29.05.2027 -
Borja Mayoral Getafe Actif 155 / 144 40% 2 29.05.2027 -
Leonardo Mendicino Bari Actif 121 / 126 40% 1 29.05.2027 -
Ademola Lookman Atlético Madrid Actif 160 / 162 40% 2 27.05.2027 -
Marcus Rashford Manchester United Actif 166 / 162 40% 2 27.05.2027 -
Fran García Betis Actif 155 / 142 40% 3 26.05.2027 -
Manu Koné AS Roma Actif 158 / 159 70% 2 26.05.2027 Fortement pour
Samu Aghehowa Girona Actif 160 / 155 40% 3 26.05.2027 -
Johnny Cardoso Atlético Madrid Actif 146 / 159 40% 2 24.05.2027 -
Marcus Thuram Inter Actif 179 / 162 40% 2 24.05.2027 -
Dani Olmo Barcelona Actif 166 / 163 40% 1 24.05.2027 -
Boubacar Kamara Aston Villa Actif 168 / 159 40% 1 24.05.2027 Plus d'infos
Taiwo Awoniyi Coventry City Actif 145 / 133 40% 2 22.05.2027 -
Miguel Figueiredo Benfica Actif 101 / 116 40% 1 22.05.2027 -
Juan Manuel Villalba Boca Juniors Actif 113 / 127 40% 1 22.05.2027 -
Pablo Barrios Atlético Madrid Actif 147 / 155 40% 3 21.05.2027 -
Warren Zaïre-Emery Paris Saint-Germain Actif 157 / 161 40% 5 20.05.2027 -
Ferran Torres Paris Saint-Germain Actif 168 / 165 40% 4 17.05.2027 -
Brennan Johnson Everton Actif 148 / 147 40% 2 16.05.2027 -
Hugo Duro Valencia Actif 129 / 144 40% 1 16.05.2027 -
Jean-Philippe Mateta Crystal Palace Actif 150 / 146 40% 2 14.05.2027 -
Ez Abde Betis Actif 150 / 157 40% 4 13.05.2027 -
Kevin Schade Brentford Actif 159 / 154 40% 5 13.05.2027 -
Dango Ouattara Brentford Actif 148 / 152 40% 4 12.05.2027 -
Rafael Leão Galatasaray Actif 154 / 165 40% 4 12.05.2027 -
Rodolfo Arteaga Liverpool Actif 161 / 166 40% 2 10.05.2027 -
Tani Oluwaseyi Villarreal Actif 141 / 151 40% 2 10.05.2027 -
Federico Chiesa Tottenham Actif 154 / 158 40% 2 08.05.2027 -
Pedro Porro Tottenham Actif 149 / 145 40% 3 07.05.2027 -
Jorge De Frutos Rayo Vallecano Actif 149 / 148 40% 1 07.05.2027 -
Lucas Jetten Cambuur Actif 111 / 121 40% 2 04.05.2027 -
Alexis Vossah Angers SCO Actif 123 / 125 40% 2 04.05.2027 -
Igor Jesus Nottingham Forest Actif 143 / 148 40% 1 04.05.2027 -
Juan David Arizala Udinese Actif 128 / 129 40% 1 30.04.2027 -
Lucas Boyé Alavés Actif 128 / 145 40% 1 25.04.2027 -
Dušan Vlahović Betis Actif 165 / 156 40% 2 24.04.2027 Plus d'infos
Juan Brunetta Torino Actif 132 / 134 40% 1 19.04.2027 -
Toni Tamarit Alverca Actif 118 / 127 40% 2 18.04.2027 -
Aitor Ruibal Betis Actif 145 / 131 40% 1 18.04.2027 -
Roberto Fernández Braga Actif 152 / 135 40% 3 17.04.2027 -
Agustín Medina Lanús Actif 119 / 128 40% 1 16.04.2027 -
Germán Valera Elche Actif 128 / 131 40% 1 14.04.2027 -
Ansu Fati Monaco Actif 131 / 140 40% 1 14.04.2027 -
Alexis Vega Famalicao Actif 155 / 146 40% 2 13.04.2027 -
Tammy Abraham Aston Villa Actif 154 / 136 40% 1 13.04.2027 -
Nazareno Roselli Defensa y Justicia Actif 113 / 127 40% 2 08.04.2027 -
João Pedro Chelsea Actif 162 / 147 40% 1 08.04.2027 -
Gonzalo Fulham Actif 154 / 144 40% 2 07.04.2027 -
Yussif Saidu Zaragoza Actif 114 / 123 40% 3 04.04.2027 -
Ollie Scarles Chelsea Actif 133 / 140 40% 4 03.04.2027 -
Pau Navarro Villarreal Actif 156 / 146 40% 3 03.04.2027 -
William Saliba Arsenal Actif 178 / 175 40% 2 31.03.2027 -
Antonio Blanco Alavés Actif 146 / 143 40% 1 31.03.2027 -
Christos Mouzakitis Hull City Actif 133 / 138 40% 3 29.03.2027 -
Dylan Lawlor Cardiff City Actif 105 / 125 40% 2 29.03.2027 -
Chema Andrés Liverpool Actif 129 / 147 40% 2 23.03.2027 -
Tiago Freitas Benfica Actif 118 / 122 40% 2 21.03.2027 -
Camilo Rey Domenech Racing Club Actif 115 / 123 40% 1 21.03.2027 -
Sascha Britschgi Catanzaro Actif 112 / 121 40% 1 16.03.2027 -
Taras Mykhavko Dynamo Kyiv Actif 118 / 122 40% 1 15.03.2027 -
Pedri Barcelona Actif 177 / 187 40% 6 14.03.2027 -
Natan Betis Actif 144 / 151 40% 1 14.03.2027 -
Bastien Meupiyou Alverca Actif 116 / 125 40% 1 12.03.2027 -
Sergi Domínguez Dinamo Zagreb Actif 127 / 121 40% 1 09.03.2027 -
Leny Yoro Monaco Actif 147 / 145 40% 2 08.03.2027 -
Joaquin Seys Club Brugge Actif 125 / 138 40% 2 08.03.2027 -
Mauro Valiente Chiapas Actif 121 / 102 40% 1 07.03.2027 -
Jalen Blesa Rio Ave Actif 123 / 109 40% 1 07.03.2027 -
Alpha Touré FC Metz Actif 105 / 115 40% 3 05.03.2027 -
Leandrinho Sharjah Actif 96 / 114 40% 2 26.02.2027 -
Enzo Cardozo Virtus Entella Actif 108 / 106 40% 2 24.02.2027 -
Santiago Fernández Eibar Actif 126 / 132 40% 1 24.02.2027 -
José Pachuca Puebla Actif 125 / 117 40% 1 20.02.2027 -
Nico O'Reilly Manchester City Actif 144 / 152 40% 1 17.02.2027 -
Valentin Atangana Al-Ahli Actif 139 / 133 40% 1 16.02.2027 -
Jonathan De Irastorza Levante Actif 126 / 131 40% 1 09.02.2027 -
Louis Leroux FC Nantes Actif 131 / 125 40% 1 04.02.2027 -
Ignacio Perruzzi Celta Actif 133 / 126 40% 1 04.02.2027 -
Victor Froholdt Porto Actif 145 / 156 40% 1 03.02.2027 -
Jack Hinshelwood Brighton Actif 150 / 148 40% 1 03.02.2027 -
Pau López Andorra Actif 148 / 135 58% 1 11.01.2027 -
Moisés Caicedo Chelsea Actif 169 / 170 93% 1 01.01.2027 -
Raúl Rangel Brighton Négociation 132 / 132 66% 1 01.01.2027 -
Mao Hosoya Manchester City Négociation 134 / 135 67% 1 01.01.2027 -
Jude Bellingham Real Madrid Actif 175 / 177 40% 1 31.12.2026 -
Sergio Lozano Jagiellonia Actif 118 / 126 40% 1 31.12.2026 -
Grégoire Coudert Burnley Actif 122 / 133 40% 2 29.12.2026 -
Yehvann Diouf OGC Nice Actif 136 / 144 40% 1 29.12.2026 -
Leo Román Deportivo La Coruña Actif 146 / 151 40% 7 27.12.2026 -
Martín Zubimendi Arsenal Actif 164 / 170 40% 5 27.12.2026 -
Xavier Biscayzacú Sporting CP Actif 134 / 137 40% 2 27.12.2026 -
Josh Keeley Luton Town Actif 116 / 117 40% 4 24.12.2026 -
Elia Caprile Osasuna Actif 134 / 137 40% 1 24.12.2026 -
Nico González Newcastle United Actif 157 / 164 40% 2 23.12.2026 Plus d'infos
Leandro Brey Sevilla Actif 112 / 122 40% 2 23.12.2026 -
Đorđe Petrović Bournemouth Actif 156 / 151 40% 1 23.12.2026 -
Malick Fofana Sunderland Actif 133 / 147 40% 1 23.12.2026 -
Robert FC Copenhagen Actif 137 / 131 40% 1 23.12.2026 -
Julen Agirrezabala Racing Santander Actif 145 / 148 40% 5 20.12.2026 -
Michael Cooper Sheffield United Actif 121 / 127 40% 1 20.12.2026 -
Juanlu Bournemouth Actif 144 / 148 40% 1 20.12.2026 -
Ilaix Moriba Celta Actif 156 / 151 40% 1 19.12.2026 -
Luciano Jachfe Nueva Chicago Actif 126 / 111 40% 3 17.12.2026 -
Fran Vieites Exeter City Actif 108 / 110 40% 4 17.12.2026 -
Nicolás Sumavil Platense Actif 117 / 118 40% 4 16.12.2026 -
Gianluigi Donnarumma Manchester City Actif 176 / 172 40% 5 16.12.2026 -
Carl Rushworth Coventry City Actif 139 / 135 40% 4 15.12.2026 -
Vitinha Paris Saint-Germain Actif 181 / 178 40% 2 15.12.2026 -
Marc Guéhi Manchester City Actif 165 / 160 40% 2 13.12.2026 -
Jan Paul van Hecke Tottenham Actif 152 / 158 40% 1 13.12.2026 -
Héctor Holguín Morelia Actif 118 / 109 40% 2 11.12.2026 -
Carlos Espí Real Madrid Actif 118 / 117 40% 1 11.12.2026 -
Jones El-Abdellaoui Celta Actif 116 / 129 40% 1 11.12.2026 -
Enzo Vázquez Central Norte Actif 114 / 101 40% 2 08.12.2026 -
Antonio Gomis Vizela Actif 118 / 120 40% 3 08.12.2026 -
Lautaro Amadé Defensa y Justicia Actif 127 / 119 40% 5 07.12.2026 -
Jefferson Mejia Cortulua Actif 125 / 119 40% 1 05.12.2026 -
Francisco Salerno Defensores Unidos Actif 112 / 99 40% 3 03.12.2026 -
Mile Svilar Barcelona Actif 154 / 163 40% 8 01.12.2026 -
Gerard Martín Barcelona Actif 154 / 152 40% 2 01.12.2026 -
Eric García Barcelona Actif 165 / 150 40% 1 01.12.2026 -
Gavi Barcelona Actif 162 / 165 40% 2 28.11.2026 -
Federico Losas Chacarita Juniors Actif 103 / 113 40% 3 27.11.2026 -
Alfonso Pastor Maritimo Actif 108 / 117 40% 1 27.11.2026 -
Felipe Zenobio Tigre Actif 134 / 125 40% 8 24.11.2026 -
Lucas Lavagnino Valladolid Actif 106 / 117 40% 1 24.11.2026 -
Mateo Aguiar Defensa y Justicia Actif 113 / 119 40% 1 24.11.2026 -
Matías Fernández-Pardo Newcastle United Actif 148 / 139 40% 2 22.11.2026 -
Alan Forneris Racing Club Actif 106 / 114 40% 1 22.11.2026 -
Fernando Tapia Club America Actif 139 / 141 40% 2 20.11.2026 -
James Trafford Leeds United Actif 131 / 133 40% 1 20.11.2026 -
Andriy Lunin Real Madrid Actif 159 / 163 40% 5 18.11.2026 -
Tuerto Sevilla Actif 163 / 153 40% 1 18.11.2026 -
Gabriel Brazão Santos Actif 139 / 129 40% 1 16.11.2026 -
Iñaki Peña Panathinaikos Actif 157 / 140 40% 2 15.11.2026 -
Sandro Tonali Tottenham Actif 182 / 179 40% 1 14.11.2026 -
Declan Rice Arsenal Actif 176 / 180 40% 2 09.11.2026 -
Logan Costa Villarreal Actif 156 / 137 40% 1 09.11.2026 -
Maxence Lacroix Chelsea Actif 138 / 156 40% 1 08.11.2026 -
Felipe Parra Stade Brestois Actif 128 / 125 40% 2 06.11.2026 -
Igor Nikić Lech Actif 101 / 117 40% 3 01.11.2026 -
Ryan Gravenberch Liverpool Actif 166 / 155 40% 1 30.10.2026 -
Tiziano Dornell Almagro Actif 108 / 112 40% 1 18.10.2026 -
Gianluca Prestianni Benfica Actif 131 / 145 40% 1 12.10.2026 -
Flavien-Enzo Boyomo Osasuna Actif 148 / 143 40% 1 09.10.2026 -
Julian Palacios Feyenoord Actif 140 / 145 40% 1 09.10.2026 -
Mauro Silveira Junior Actif 108 / 109 40% 2 07.10.2026 -
Gino Santilli Banfield Actif 113 / 110 40% 1 06.10.2026 -
Robin Roefs Sunderland Actif 150 / 145 40% 1 04.10.2026 -
Achraf Hakimi Paris Saint-Germain Actif 186 / 174 40% 1 03.10.2026 -
Jonás Luna Wanderers Actif 118 / 123 40% 1 02.10.2026 -
Morten Hjulmand Atlético Madrid Actif 151 / 160 40% 1 01.10.2026 -
Esteban Glellel Quilmes Actif 109 / 114 40% 1 01.10.2026 -
Juan Moreno La Luz Actif 110 / 113 40% 1 29.09.2026 -
Pape Guèye Villarreal Actif 147 / 151 40% 1 27.09.2026 -
Lautaro Maldonado Instituto Actif 114 / 108 40% 1 24.09.2026 -
Nicolás Azambuja Danubio Actif 108 / 121 40% 1 22.09.2026 -
Senny Mayulu Paris Saint-Germain Actif 130 / 147 40% 1 21.09.2026 -
Dom Ballard Leyton Orient Actif 125 / 115 40% 1 21.09.2026 -
Nahuel Galardi Maipú Actif 100 / 102 40% 1 18.09.2026 -
Sebastián Meza Huracán Actif 136 / 134 40% 1 16.09.2026 -
Agustín Lastra Estudiantes Actif 97 / 113 40% 1 15.09.2026 -
Nicolás Bolcato Independiente Rivadavia Actif 110 / 117 40% 1 11.09.2026 -
Óscar Mingueza Crystal Palace Actif 138 / 143 40% 1 10.09.2026 -
Ibrahima Konaté Real Madrid Actif 167 / 166 40% 1 10.09.2026 -
Álvaro Carreras Real Madrid Actif 140 / 160 40% 1 09.09.2026 -
Sven Botman Newcastle United Actif 167 / 152 40% 1 09.09.2026 -
Jérémy Jacquet Liverpool Actif 136 / 149 40% 1 23.08.2026 -
Halam Loboa Independiente Medellin Actif 117 / 130 40% 1 18.08.2026 -
Rodrygo Real Madrid Actif 157 / 170 40% 1 01.08.2026 -
Emiliano Rigoni Belgrano Actif 113 / 115 40% 1 01.08.2026 -